createdAt,value
2018-07-16T00:00:25.636Z,19.00
2018-07-16T00:02:55.438Z,19.00
2018-07-16T00:05:24.084Z,18.90
2018-07-16T00:07:52.845Z,18.90
2018-07-16T00:10:21.567Z,18.90
2018-07-16T00:12:50.444Z,18.80
2018-07-16T00:15:19.128Z,18.80
2018-07-16T00:20:16.172Z,18.60
2018-07-16T00:22:44.900Z,18.60
2018-07-16T00:25:13.563Z,18.60
2018-07-16T00:27:42.211Z,18.60
2018-07-16T00:30:11.032Z,18.60
2018-07-16T00:32:39.758Z,18.60
2018-07-16T00:35:09.333Z,18.50
2018-07-16T00:37:38.908Z,18.50
2018-07-16T00:42:35.843Z,18.50
2018-07-16T00:45:04.936Z,18.50
2018-07-16T00:47:33.599Z,18.50
2018-07-16T00:50:02.567Z,18.40
2018-07-16T00:52:31.319Z,18.40
2018-07-16T00:55:00.083Z,18.40
2018-07-16T00:57:28.698Z,18.30
2018-07-16T00:59:57.529Z,18.20
2018-07-16T01:02:26.148Z,18.20
2018-07-16T01:04:55.440Z,18.20
2018-07-16T01:07:24.153Z,18.20
2018-07-16T01:09:53.993Z,18.20
2018-07-16T01:12:22.610Z,18.10
2018-07-16T01:14:51.299Z,18.10
2018-07-16T01:17:19.988Z,18.20
2018-07-16T01:19:48.771Z,18.10
2018-07-16T01:22:17.433Z,18.00
2018-07-16T01:24:46.050Z,18.00
2018-07-16T01:27:14.726Z,18.00
2018-07-16T01:29:43.384Z,18.00
2018-07-16T01:32:12.039Z,17.90
2018-07-16T01:34:40.701Z,17.90
2018-07-16T01:37:09.462Z,17.90
2018-07-16T01:39:38.190Z,17.90
2018-07-16T01:42:07.068Z,17.90
2018-07-16T01:44:35.877Z,17.90
2018-07-16T01:47:04.757Z,17.80
2018-07-16T01:49:34.204Z,17.70
2018-07-16T01:52:03.157Z,17.60
2018-07-16T01:54:32.346Z,17.50
2018-07-16T01:57:01.082Z,17.50
2018-07-16T01:59:29.771Z,17.40
2018-07-16T02:01:58.453Z,17.30
2018-07-16T02:04:27.252Z,17.30
2018-07-16T02:06:56.033Z,17.30
2018-07-16T02:09:24.672Z,17.20
2018-07-16T02:11:53.377Z,17.20
2018-07-16T02:14:22.146Z,17.20
2018-07-16T02:16:50.881Z,17.20
2018-07-16T02:19:19.640Z,17.10
2018-07-16T02:21:48.350Z,17.10
2018-07-16T02:24:17.367Z,17.00
2018-07-16T02:26:46.024Z,17.00
2018-07-16T02:29:14.828Z,17.00
2018-07-16T02:31:43.991Z,17.00
2018-07-16T02:34:13.071Z,17.00
2018-07-16T02:36:41.771Z,16.90
2018-07-16T02:39:10.440Z,16.90
2018-07-16T02:41:39.100Z,17.00
2018-07-16T02:44:08.140Z,17.00
2018-07-16T02:46:36.895Z,17.00
2018-07-16T02:49:05.667Z,17.00
2018-07-16T02:51:34.393Z,16.90
2018-07-16T02:54:03.287Z,16.90
2018-07-16T02:56:32.139Z,16.90
2018-07-16T02:59:00.951Z,16.90
2018-07-16T03:01:29.715Z,16.80
2018-07-16T03:03:58.504Z,16.80
2018-07-16T03:06:27.365Z,16.80
2018-07-16T03:08:56.107Z,16.80
2018-07-16T03:11:24.834Z,16.80
2018-07-16T03:13:53.441Z,16.80
2018-07-16T03:16:22.143Z,16.80
2018-07-16T03:18:50.838Z,16.80
2018-07-16T03:21:19.613Z,16.80
2018-07-16T03:23:48.289Z,16.80
2018-07-16T03:26:17.164Z,16.70
2018-07-16T03:28:45.895Z,16.80
2018-07-16T03:31:14.621Z,16.70
2018-07-16T03:33:43.411Z,16.70
2018-07-16T03:36:12.774Z,16.60
2018-07-16T03:38:41.502Z,16.60
2018-07-16T03:41:10.414Z,16.60
2018-07-16T03:43:39.164Z,16.60
2018-07-16T03:46:07.987Z,16.70
2018-07-16T03:48:36.789Z,16.60
2018-07-16T03:51:05.588Z,16.60
2018-07-16T03:53:34.270Z,16.60
2018-07-16T03:56:03.187Z,16.50
2018-07-16T03:58:31.902Z,16.50
2018-07-16T04:01:00.623Z,16.50
2018-07-16T04:03:29.315Z,16.50
2018-07-16T04:05:58.138Z,16.60
2018-07-16T04:13:23.464Z,16.70
2018-07-16T04:15:52.079Z,16.70
2018-07-16T04:18:21.445Z,16.70
2018-07-16T04:20:51.052Z,16.80
2018-07-16T04:23:20.345Z,16.80
2018-07-16T04:25:49.129Z,16.80
2018-07-16T04:28:17.816Z,16.70
2018-07-16T04:30:46.481Z,16.80
2018-07-16T04:33:15.372Z,16.90
2018-07-16T04:35:44.056Z,17.00
2018-07-16T04:38:12.728Z,17.00
2018-07-16T04:40:41.534Z,17.00
2018-07-16T04:43:10.243Z,17.00
2018-07-16T04:45:38.932Z,17.10
2018-07-16T04:48:07.660Z,17.30
2018-07-16T04:50:36.361Z,17.40
2018-07-16T04:53:05.063Z,17.40
2018-07-16T04:55:33.729Z,17.50
2018-07-16T04:58:02.388Z,17.60
2018-07-16T05:00:31.041Z,18.00
2018-07-16T05:02:59.920Z,18.80
2018-07-16T05:05:28.666Z,20.10
2018-07-16T05:07:57.441Z,20.80
2018-07-16T05:10:26.273Z,21.80
2018-07-16T05:12:55.133Z,22.40
2018-07-16T05:15:24.150Z,23.10
2018-07-16T05:17:52.898Z,24.10
2018-07-16T05:20:21.816Z,24.40
2018-07-16T05:22:50.729Z,25.10
2018-07-16T05:25:20.244Z,25.50
2018-07-16T05:27:56.527Z,25.60
2018-07-16T05:30:25.525Z,25.80
2018-07-16T05:32:54.282Z,25.40
2018-07-16T05:35:23.055Z,25.70
2018-07-16T05:37:51.711Z,26.10
2018-07-16T05:40:20.675Z,26.30
2018-07-16T05:42:49.344Z,27.10
2018-07-16T05:45:18.007Z,27.30
2018-07-16T05:47:46.766Z,26.80
2018-07-16T05:50:15.467Z,27.60
2018-07-16T05:52:44.110Z,28.20
2018-07-16T05:55:13.058Z,27.80
2018-07-16T05:57:41.749Z,28.20
2018-07-16T06:00:10.470Z,28.30
2018-07-16T06:02:39.189Z,28.00
2018-07-16T06:05:07.956Z,27.70
2018-07-16T06:07:36.700Z,27.70
2018-07-16T06:10:06.316Z,27.50
2018-07-16T06:12:35.006Z,27.80
2018-07-16T06:15:03.961Z,28.50
2018-07-16T06:17:32.813Z,28.60
2018-07-16T06:20:01.565Z,28.90
2018-07-16T06:22:30.518Z,29.50
2018-07-16T06:24:59.356Z,29.90
2018-07-16T06:27:28.049Z,29.80
2018-07-16T06:29:56.825Z,30.30
2018-07-16T06:32:25.853Z,31.10
2018-07-16T06:34:54.498Z,30.90
2018-07-16T06:37:23.160Z,30.40
2018-07-16T06:39:52.510Z,30.50
2018-07-16T06:42:21.480Z,30.40
2018-07-16T06:44:50.164Z,30.50
2018-07-16T06:49:47.179Z,31.20
2018-07-16T06:52:15.921Z,31.10
2018-07-16T06:54:44.694Z,31.00
2018-07-16T06:57:13.380Z,30.30
2018-07-16T07:02:10.411Z,28.10
2018-07-16T07:04:39.112Z,27.10
2018-07-16T07:07:07.769Z,26.30
2018-07-16T07:09:36.642Z,25.50
2018-07-16T07:12:05.401Z,24.80
2018-07-16T07:17:02.369Z,24.10
2018-07-16T07:19:31.060Z,24.00
2018-07-16T07:21:59.797Z,23.90
2018-07-16T07:26:57.445Z,23.90
2018-07-16T07:29:26.142Z,23.80
2018-07-16T07:31:54.780Z,24.00
2018-07-16T07:34:23.512Z,24.00
2018-07-16T07:36:52.348Z,24.00
2018-07-16T07:39:21.099Z,24.10
2018-07-16T07:41:50.000Z,24.10
2018-07-16T07:44:18.616Z,24.20
2018-07-16T07:46:47.281Z,24.30
2018-07-16T07:49:16.231Z,24.20
2018-07-16T07:51:44.944Z,24.20
2018-07-16T07:54:13.755Z,24.20
2018-07-16T07:56:43.296Z,24.20
2018-07-16T07:59:12.166Z,24.20
2018-07-16T08:01:41.080Z,24.20
2018-07-16T08:04:09.922Z,24.30
2018-07-16T08:06:38.648Z,24.40
2018-07-16T08:09:08.062Z,24.50
2018-07-16T08:11:36.844Z,24.70
2018-07-16T08:14:05.730Z,24.70
2018-07-16T08:16:35.568Z,24.90
2018-07-16T08:19:04.360Z,25.10
2018-07-16T08:21:33.337Z,25.00
2018-07-16T08:24:02.187Z,25.10
2018-07-16T08:26:30.974Z,25.20
2018-07-16T08:28:59.756Z,25.20
2018-07-16T08:31:28.582Z,25.30
2018-07-16T08:33:57.379Z,25.30
2018-07-16T08:36:26.233Z,25.30
2018-07-16T08:38:55.006Z,25.30
2018-07-16T08:41:23.840Z,25.30
2018-07-16T08:43:52.567Z,25.40
2018-07-16T08:46:21.475Z,25.40
2018-07-16T08:48:50.238Z,25.30
2018-07-16T08:51:18.959Z,25.40
2018-07-16T08:53:47.706Z,25.40
2018-07-16T08:56:16.522Z,25.30
2018-07-16T08:58:45.467Z,25.40
2018-07-16T09:01:14.384Z,25.50
2018-07-16T09:03:43.270Z,25.60
2018-07-16T09:06:11.993Z,25.70
2018-07-16T09:08:40.882Z,25.80
2018-07-16T09:11:09.774Z,25.90
2018-07-16T09:13:39.845Z,25.90
2018-07-16T09:16:08.512Z,25.90
2018-07-16T09:18:37.377Z,26.00
2018-07-16T09:21:06.136Z,26.00
2018-07-16T09:23:35.096Z,25.90
2018-07-16T09:26:03.904Z,25.90
2018-07-16T09:28:32.693Z,25.80
2018-07-16T09:31:01.579Z,26.00
2018-07-16T09:33:30.429Z,26.10
2018-07-16T09:35:59.317Z,26.20
2018-07-16T09:38:29.225Z,26.20
2018-07-16T09:40:58.010Z,26.20
2018-07-16T09:43:26.963Z,26.00
2018-07-16T09:45:55.882Z,26.10
2018-07-16T09:48:24.656Z,26.20
2018-07-16T09:50:53.444Z,26.30
2018-07-16T09:53:22.753Z,26.30
2018-07-16T09:55:51.428Z,26.30
2018-07-16T09:58:20.450Z,26.30
2018-07-16T10:00:54.558Z,26.40
2018-07-16T10:03:23.342Z,26.40
2018-07-16T10:05:52.109Z,26.50
2018-07-16T10:08:20.979Z,26.70
2018-07-16T10:10:50.100Z,26.80
2018-07-16T10:13:18.880Z,26.80
2018-07-16T10:15:47.722Z,26.90
2018-07-16T10:18:16.446Z,26.90
2018-07-16T10:20:45.319Z,27.00
2018-07-16T10:23:14.048Z,27.00
2018-07-16T10:25:42.955Z,27.10
2018-07-16T10:28:11.659Z,27.10
2018-07-16T10:30:40.494Z,27.30
2018-07-16T10:33:09.293Z,27.30
2018-07-16T10:35:38.032Z,27.30
2018-07-16T10:38:07.140Z,27.40
2018-07-16T10:43:04.552Z,27.40
2018-07-16T10:45:33.454Z,27.50
2018-07-16T10:48:02.231Z,27.60
2018-07-16T10:50:30.997Z,27.70
2018-07-16T10:52:59.738Z,27.50
2018-07-16T10:55:29.786Z,27.50
2018-07-16T10:57:58.606Z,27.50
2018-07-16T11:00:28.095Z,27.60
2018-07-16T11:02:57.053Z,27.50
2018-07-16T11:05:26.643Z,27.40
2018-07-16T11:07:55.814Z,27.40
2018-07-16T11:10:24.664Z,27.50
2018-07-16T11:12:53.532Z,27.40
2018-07-16T11:15:22.464Z,27.30
2018-07-16T11:17:51.182Z,27.30
2018-07-16T11:20:19.889Z,27.40
2018-07-16T11:22:50.034Z,27.60
2018-07-16T11:25:18.747Z,27.70
2018-07-16T11:27:48.289Z,27.80
2018-07-16T11:30:17.049Z,28.00
2018-07-16T11:32:45.793Z,27.90
2018-07-16T11:35:14.833Z,28.00
2018-07-16T11:37:43.503Z,28.00
2018-07-16T11:40:12.258Z,28.10
2018-07-16T11:42:41.075Z,28.10
2018-07-16T11:45:09.863Z,28.20
2018-07-16T11:47:38.857Z,28.10
2018-07-16T11:50:07.762Z,28.20
2018-07-16T11:52:36.523Z,28.20
2018-07-16T11:55:05.223Z,28.20
2018-07-16T11:57:33.886Z,28.30
2018-07-16T12:00:04.595Z,28.30
2018-07-16T12:02:33.450Z,28.30
2018-07-16T12:05:03.603Z,28.40
2018-07-16T12:07:32.362Z,28.30
2018-07-16T12:10:01.114Z,28.30
2018-07-16T12:12:30.112Z,28.20
2018-07-16T12:14:58.814Z,27.90
2018-07-16T12:17:27.674Z,27.80
2018-07-16T12:19:56.392Z,27.90
2018-07-16T12:22:25.254Z,28.00
2018-07-16T12:24:55.058Z,28.00
2018-07-16T12:27:24.075Z,28.20
2018-07-16T12:29:53.315Z,28.20
2018-07-16T12:32:21.960Z,28.30
2018-07-16T12:34:50.798Z,28.40
2018-07-16T12:37:19.637Z,28.40
2018-07-16T12:39:48.534Z,28.60
2018-07-16T12:42:17.440Z,28.50
2018-07-16T12:44:46.107Z,28.40
2018-07-16T12:47:14.874Z,28.40
2018-07-16T12:49:43.772Z,28.40
2018-07-16T12:52:12.502Z,28.40
2018-07-16T12:54:41.389Z,28.30
2018-07-16T12:57:10.409Z,28.40
2018-07-16T12:59:39.153Z,28.50
2018-07-16T13:02:08.281Z,28.50
2018-07-16T13:04:37.423Z,28.60
2018-07-16T13:07:06.464Z,28.80
2018-07-16T13:09:35.209Z,28.90
2018-07-16T13:12:03.948Z,28.90
2018-07-16T13:14:32.673Z,28.90
2018-07-16T13:17:01.576Z,28.80
2018-07-16T13:19:30.308Z,28.90
2018-07-16T13:21:59.124Z,28.90
2018-07-16T13:24:27.825Z,28.90
2018-07-16T13:26:59.893Z,28.40
2018-07-16T13:29:28.605Z,28.50
2018-07-16T13:31:57.803Z,28.60
2018-07-16T13:34:26.620Z,28.60
2018-07-16T13:36:55.512Z,28.60
2018-07-16T13:39:24.170Z,28.80
2018-07-16T13:41:52.900Z,28.80
2018-07-16T13:44:22.037Z,28.80
2018-07-16T13:46:51.020Z,28.80
2018-07-16T13:49:19.788Z,28.80
2018-07-16T13:51:48.518Z,28.80
2018-07-16T13:54:17.226Z,28.80
2018-07-16T13:56:46.089Z,28.80
2018-07-16T13:59:14.788Z,28.80
2018-07-16T14:01:44.364Z,29.00
2018-07-16T14:04:13.026Z,29.00
2018-07-16T14:06:41.757Z,29.00
2018-07-16T14:09:11.178Z,29.00
2018-07-16T14:11:40.019Z,29.00
2018-07-16T14:14:08.699Z,29.00
2018-07-16T14:16:37.847Z,29.00
2018-07-16T14:19:06.629Z,28.90
2018-07-16T14:21:35.806Z,28.90
2018-07-16T14:24:04.616Z,28.80
2018-07-16T14:26:33.223Z,28.70
2018-07-16T14:29:02.582Z,28.70
2018-07-16T14:31:31.544Z,28.80
2018-07-16T14:34:00.235Z,28.80
2018-07-16T14:36:29.112Z,28.90
2018-07-16T14:38:57.859Z,28.90
2018-07-16T14:41:26.661Z,29.00
2018-07-16T14:43:55.564Z,29.00
2018-07-16T14:46:24.289Z,29.00
2018-07-16T14:48:53.054Z,29.00
2018-07-16T14:51:21.887Z,29.00
2018-07-16T14:53:50.737Z,29.10
2018-07-16T14:56:19.535Z,29.00
2018-07-16T14:58:48.499Z,29.10
2018-07-16T15:01:18.287Z,29.10
2018-07-16T15:03:47.356Z,29.10
2018-07-16T15:06:16.477Z,29.00
2018-07-16T15:13:42.232Z,29.00
2018-07-16T15:16:10.951Z,29.00
2018-07-16T15:18:39.772Z,28.90
2018-07-16T15:21:08.799Z,29.00
2018-07-16T15:23:38.252Z,29.00
2018-07-16T15:26:07.325Z,29.00
2018-07-16T15:28:36.460Z,29.00
2018-07-16T15:31:05.529Z,29.10
2018-07-16T15:33:35.340Z,29.10
2018-07-16T15:36:04.390Z,29.10
2018-07-16T15:38:33.258Z,29.20
2018-07-16T15:41:02.099Z,29.20
2018-07-16T15:43:31.197Z,29.20
2018-07-16T15:45:59.990Z,29.20
2018-07-16T15:48:29.032Z,29.00
2018-07-16T15:50:57.863Z,29.20
2018-07-16T15:53:26.749Z,29.20
2018-07-16T15:55:55.541Z,29.10
2018-07-16T16:00:52.948Z,29.20
2018-07-16T16:03:21.791Z,29.20
2018-07-16T16:05:50.743Z,29.10
2018-07-16T16:08:20.436Z,29.20
2018-07-16T16:10:49.214Z,29.40
2018-07-16T16:13:18.024Z,29.40
2018-07-16T16:15:47.000Z,29.40
2018-07-16T16:18:15.829Z,29.50
2018-07-16T16:20:44.686Z,29.40
2018-07-16T16:23:13.757Z,29.40
2018-07-16T16:25:42.595Z,29.30
2018-07-16T16:28:11.583Z,29.30
2018-07-16T16:30:40.398Z,29.40
2018-07-16T16:33:09.220Z,29.40
2018-07-16T16:35:38.027Z,29.50
2018-07-16T16:38:08.082Z,29.50
2018-07-16T16:40:37.515Z,29.50
2018-07-16T16:43:22.322Z,29.40
2018-07-16T16:45:55.879Z,29.40
2018-07-16T16:48:32.243Z,29.40
2018-07-16T16:51:01.112Z,29.40
2018-07-16T16:53:37.977Z,29.50
2018-07-16T16:56:07.449Z,29.40
2018-07-16T16:58:52.655Z,29.30
2018-07-16T17:01:21.444Z,29.20
2018-07-16T17:03:50.354Z,29.20
2018-07-16T17:06:19.202Z,29.10
2018-07-16T17:08:47.968Z,29.20
2018-07-16T17:11:20.001Z,29.60
2018-07-16T17:13:49.761Z,30.40
2018-07-16T17:16:19.281Z,32.10
2018-07-16T17:18:48.637Z,33.10
2018-07-16T17:21:22.472Z,33.80
2018-07-16T17:23:57.903Z,34.60
2018-07-16T17:26:27.296Z,35.80
2018-07-16T17:28:56.135Z,36.00
2018-07-16T17:31:24.815Z,36.10
2018-07-16T17:33:58.074Z,36.80
2018-07-16T17:36:29.299Z,36.70
2018-07-16T17:38:58.052Z,36.50
2018-07-16T17:41:26.872Z,35.50
2018-07-16T17:43:55.671Z,34.90
2018-07-16T17:46:24.368Z,34.50
2018-07-16T17:48:53.386Z,34.60
2018-07-16T17:51:22.112Z,34.20
2018-07-16T17:53:50.934Z,33.30
2018-07-16T17:56:20.033Z,32.80
2018-07-16T17:58:48.798Z,32.70
2018-07-16T18:01:20.163Z,32.70
2018-07-16T18:03:48.996Z,33.00
2018-07-16T18:06:18.018Z,33.80
2018-07-16T18:08:46.758Z,33.80
2018-07-16T18:11:16.190Z,33.50
2018-07-16T18:13:45.161Z,32.80
2018-07-16T18:16:30.781Z,32.10
2018-07-16T18:18:59.671Z,31.20
2018-07-16T18:21:28.369Z,30.50
2018-07-16T18:23:57.238Z,30.00
2018-07-16T18:26:25.971Z,29.50
2018-07-16T18:28:54.835Z,29.20
2018-07-16T18:31:24.637Z,28.90
2018-07-16T18:33:53.336Z,28.70
2018-07-16T18:36:22.306Z,28.50
2018-07-16T18:38:51.123Z,28.30
2018-07-16T18:41:20.500Z,28.10
2018-07-16T18:43:49.382Z,28.00
2018-07-16T18:46:18.082Z,27.90
2018-07-16T18:48:48.247Z,27.90
2018-07-16T18:51:18.081Z,27.80
2018-07-16T18:53:46.721Z,27.70
2018-07-16T18:56:15.515Z,27.50
2018-07-16T18:58:44.228Z,27.40
2018-07-16T19:01:13.049Z,27.40
2018-07-16T19:03:42.033Z,27.20
2018-07-16T19:06:10.933Z,27.20
2018-07-16T19:08:39.759Z,27.10
2018-07-16T19:11:08.612Z,27.10
2018-07-16T19:13:37.421Z,27.10
2018-07-16T19:16:06.283Z,27.00
2018-07-16T19:18:35.071Z,26.90
2018-07-16T19:21:04.020Z,26.80
2018-07-16T19:23:33.136Z,26.80
2018-07-16T19:26:03.005Z,26.70
2018-07-16T19:28:32.314Z,26.70
2018-07-16T19:31:00.993Z,26.60
2018-07-16T19:33:29.710Z,26.50
2018-07-16T19:35:58.347Z,26.50
2018-07-16T19:38:27.214Z,26.40
2018-07-16T19:40:55.976Z,26.30
2018-07-16T19:43:24.734Z,26.20
2018-07-16T19:45:53.529Z,26.10
2018-07-16T19:48:22.377Z,26.10
2018-07-16T19:50:51.278Z,26.00
2018-07-16T19:53:20.024Z,26.00
2018-07-16T19:55:48.781Z,25.90
2018-07-16T19:58:18.224Z,25.90
2018-07-16T20:00:47.099Z,25.80
2018-07-16T20:03:15.988Z,25.70
2018-07-16T20:05:45.775Z,25.60
2018-07-16T20:08:14.757Z,25.60
2018-07-16T20:10:43.552Z,25.60
2018-07-16T20:13:12.550Z,25.50
2018-07-16T20:15:41.830Z,25.40
2018-07-16T20:20:53.882Z,25.30
2018-07-16T20:23:23.114Z,25.30
2018-07-16T20:25:53.664Z,25.20
2018-07-16T20:28:22.568Z,25.10
2018-07-16T20:30:53.498Z,25.10
2018-07-16T20:33:22.478Z,25.00
2018-07-16T20:35:52.040Z,25.00
2018-07-16T20:38:21.173Z,24.90
2018-07-16T20:40:50.048Z,24.80
2018-07-16T20:43:18.880Z,24.80
2018-07-16T20:45:47.684Z,24.70
2018-07-16T20:48:17.289Z,24.70
2018-07-16T20:50:46.186Z,24.60
2018-07-16T20:53:14.864Z,24.60
2018-07-16T20:55:43.716Z,24.50
2018-07-16T20:58:12.412Z,24.40
2018-07-16T21:00:46.500Z,24.30
2018-07-16T21:03:15.601Z,24.20
2018-07-16T21:05:44.533Z,24.10
2018-07-16T21:08:13.628Z,24.10
2018-07-16T21:10:44.309Z,24.10
2018-07-16T21:13:13.239Z,24.00
2018-07-16T21:15:43.030Z,24.00
2018-07-16T21:18:12.030Z,24.00
2018-07-16T21:20:40.767Z,23.90
2018-07-16T21:23:09.680Z,23.90
2018-07-16T21:25:38.369Z,23.80
2018-07-16T21:28:07.104Z,23.70
2018-07-16T21:30:35.818Z,23.70
2018-07-16T21:33:04.604Z,23.70
2018-07-16T21:38:07.791Z,23.50
2018-07-16T21:40:37.194Z,23.50
2018-07-16T21:43:06.128Z,23.40
2018-07-16T21:45:39.969Z,23.40
2018-07-16T21:48:08.961Z,23.40
2018-07-16T21:50:38.679Z,23.30
2018-07-16T21:53:07.403Z,23.20
2018-07-16T21:55:36.081Z,23.20
2018-07-16T21:58:05.214Z,23.20
2018-07-16T22:00:33.979Z,23.10
2018-07-16T22:03:02.762Z,23.10
2018-07-16T22:05:31.448Z,23.10
2018-07-16T22:08:01.038Z,23.00
2018-07-16T22:10:29.873Z,23.00
2018-07-16T22:13:01.864Z,23.00
2018-07-16T22:15:31.445Z,22.90
2018-07-16T22:18:01.692Z,22.80
2018-07-16T22:20:30.713Z,22.90
2018-07-16T22:23:00.107Z,22.90
2018-07-16T22:25:28.980Z,22.80
2018-07-16T22:27:57.657Z,22.80
2018-07-16T22:30:26.471Z,22.70
2018-07-16T22:32:55.443Z,22.70
2018-07-16T22:35:24.428Z,22.70
2018-07-16T22:37:53.104Z,22.60
2018-07-16T22:40:22.715Z,22.60
2018-07-16T22:42:51.462Z,22.50
2018-07-16T22:45:21.603Z,22.50
2018-07-16T22:47:50.338Z,22.40
2018-07-16T22:50:20.028Z,22.40
2018-07-16T22:52:48.589Z,22.40
2018-07-16T22:55:17.356Z,22.40
2018-07-16T22:57:47.233Z,22.30
2018-07-16T23:00:16.084Z,22.20
2018-07-16T23:02:44.833Z,22.20
2018-07-16T23:05:13.674Z,22.20
2018-07-16T23:07:42.422Z,22.20
2018-07-16T23:10:11.072Z,22.10
2018-07-16T23:15:08.075Z,22.00
2018-07-16T23:17:36.695Z,21.90
2018-07-16T23:20:05.381Z,21.90
2018-07-16T23:22:44.136Z,21.90
2018-07-16T23:25:12.838Z,21.90
2018-07-16T23:27:41.608Z,21.90
2018-07-16T23:30:10.257Z,21.90
2018-07-16T23:32:38.946Z,21.70
2018-07-16T23:35:07.706Z,21.60
2018-07-16T23:37:38.725Z,21.70
2018-07-16T23:40:07.492Z,21.60
2018-07-16T23:42:36.184Z,21.60
2018-07-16T23:45:05.233Z,21.50
2018-07-16T23:47:34.027Z,21.50
2018-07-16T23:50:02.737Z,21.50
2018-07-16T23:52:32.110Z,21.50
2018-07-16T23:55:00.982Z,21.40
2018-07-16T23:57:30.052Z,21.40
2018-07-16T23:59:58.776Z,21.40
